createdAt,value
2019-02-18T17:01:18.132Z,19.47
2019-02-18T17:04:08.794Z,22.30
2019-02-18T17:06:59.901Z,20.00
2019-02-18T17:09:50.158Z,27.23
2019-02-18T17:12:40.763Z,20.67
2019-02-18T17:15:30.745Z,24.33
2019-02-18T17:18:20.782Z,41.70
2019-02-18T17:21:11.119Z,35.33
2019-02-18T17:24:01.217Z,25.90
2019-02-18T17:26:51.718Z,24.83
2019-02-18T17:29:42.121Z,28.87
2019-02-18T17:32:32.370Z,31.73
2019-02-18T17:35:22.574Z,23.67
2019-02-18T17:38:12.799Z,29.00
2019-02-18T17:41:03.078Z,32.27
2019-02-18T17:43:53.347Z,35.67
2019-02-18T17:46:43.287Z,29.53
2019-02-18T17:49:33.498Z,37.20
2019-02-18T17:52:23.541Z,37.53
2019-02-18T17:55:14.022Z,45.73
2019-02-18T17:58:05.144Z,36.73
2019-02-18T18:00:56.838Z,38.90
2019-02-18T18:03:47.630Z,39.63
2019-02-18T18:06:37.702Z,43.00
2019-02-18T18:09:28.546Z,45.20
2019-02-18T18:12:18.845Z,37.27
2019-02-18T18:15:10.091Z,33.93
2019-02-18T18:18:00.064Z,39.43
2019-02-18T18:20:50.220Z,37.17
2019-02-18T18:23:40.531Z,32.87
2019-02-18T18:26:30.821Z,35.07
2019-02-18T18:29:21.270Z,44.37
2019-02-18T18:32:12.031Z,34.43
2019-02-18T18:35:02.098Z,45.37
2019-02-18T18:37:52.352Z,48.03
2019-02-18T18:40:43.772Z,35.33
2019-02-18T18:43:34.235Z,33.37
2019-02-18T18:46:24.497Z,38.87
2019-02-18T18:49:14.654Z,35.03
2019-02-18T18:52:04.690Z,31.70
2019-02-18T18:54:54.910Z,30.03
2019-02-18T18:57:45.003Z,33.10
2019-02-18T19:00:35.213Z,35.57
2019-02-18T19:03:26.170Z,43.97
2019-02-18T19:06:16.174Z,34.40
2019-02-18T19:09:07.665Z,41.30
2019-02-18T19:11:57.598Z,38.97
2019-02-18T19:14:48.233Z,43.47
2019-02-18T19:17:38.510Z,37.67
2019-02-18T19:20:29.381Z,35.50
2019-02-18T19:23:19.714Z,36.73
2019-02-18T19:26:09.957Z,33.60
2019-02-18T19:29:00.025Z,43.33
2019-02-18T19:31:50.525Z,42.90
2019-02-18T19:34:40.968Z,42.93
2019-02-18T19:37:31.110Z,38.17
2019-02-18T19:40:21.170Z,39.17
2019-02-18T19:43:11.775Z,39.00
2019-02-18T19:46:01.750Z,47.20
2019-02-18T19:48:52.188Z,43.20
2019-02-18T19:51:42.470Z,46.10
2019-02-18T19:54:32.867Z,48.73
2019-02-18T19:57:23.166Z,49.13
2019-02-18T20:00:15.715Z,51.60
2019-02-18T20:03:06.225Z,54.13
2019-02-18T20:05:56.586Z,48.33
2019-02-18T20:08:47.450Z,40.87
2019-02-18T20:11:37.620Z,38.40
2019-02-18T20:14:27.879Z,49.10
2019-02-18T20:17:17.926Z,51.10
2019-02-18T20:20:09.899Z,54.93
2019-02-18T20:22:59.990Z,57.20
2019-02-18T20:25:50.493Z,51.43
2019-02-18T20:28:40.762Z,57.00
2019-02-18T20:31:30.911Z,47.00
2019-02-18T20:34:21.826Z,45.50
2019-02-18T20:37:12.179Z,44.33
2019-02-18T20:40:02.634Z,37.73
2019-02-18T20:42:53.030Z,36.70
2019-02-18T20:45:43.650Z,38.37
2019-02-18T20:48:33.558Z,34.90
2019-02-18T20:51:23.590Z,27.67
2019-02-18T20:54:13.994Z,29.17
2019-02-18T20:57:04.334Z,33.77
2019-02-18T20:59:54.313Z,23.43
2019-02-18T21:02:44.502Z,32.83
2019-02-18T21:05:35.117Z,25.03
2019-02-18T21:08:25.441Z,25.57
2019-02-18T21:11:15.499Z,22.63
2019-02-18T21:14:05.958Z,21.40
2019-02-18T21:16:57.086Z,25.80
2019-02-18T21:19:47.612Z,29.70
2019-02-18T21:22:37.561Z,24.30
2019-02-18T21:25:27.866Z,23.70
2019-02-18T21:28:18.494Z,19.40
2019-02-18T21:31:09.261Z,19.97
2019-02-18T21:34:00.711Z,17.47
2019-02-18T21:36:51.182Z,18.63
2019-02-18T21:39:41.317Z,21.63
2019-02-18T21:42:31.702Z,15.73
2019-02-18T21:45:21.698Z,15.70
2019-02-18T21:48:12.073Z,17.87
2019-02-18T21:51:02.234Z,17.73
2019-02-18T21:53:52.271Z,15.20
2019-02-18T21:56:42.499Z,16.63
2019-02-18T21:59:33.115Z,12.70
2019-02-18T22:02:23.477Z,17.57
2019-02-18T22:05:14.169Z,16.67
2019-02-18T22:08:04.334Z,11.53
2019-02-18T22:10:54.693Z,14.73
2019-02-18T22:13:44.562Z,12.97
2019-02-18T22:16:34.710Z,11.03
2019-02-18T22:19:25.098Z,11.30
2019-02-18T22:22:15.289Z,12.47
2019-02-18T22:25:06.685Z,9.33
2019-02-18T22:27:56.681Z,11.90
2019-02-18T22:30:47.116Z,11.47
2019-02-18T22:33:37.362Z,15.17
2019-02-18T22:36:27.702Z,18.57
2019-02-18T22:39:19.775Z,11.63
2019-02-18T22:42:09.920Z,10.93
2019-02-18T22:44:59.880Z,13.00
2019-02-18T22:47:50.106Z,10.37
2019-02-18T22:50:40.677Z,10.77
2019-02-18T22:53:30.954Z,10.67
2019-02-18T22:56:21.471Z,10.60
2019-02-18T22:59:11.640Z,13.43
2019-02-18T23:02:01.954Z,14.17
2019-02-18T23:04:51.925Z,12.97
2019-02-18T23:07:42.109Z,12.77
2019-02-18T23:10:32.586Z,14.87
2019-02-18T23:13:23.074Z,12.80
2019-02-18T23:16:13.015Z,15.73
2019-02-18T23:19:03.350Z,13.63
2019-02-18T23:21:53.604Z,14.63
2019-02-18T23:24:44.037Z,15.40
2019-02-18T23:27:34.323Z,15.07
2019-02-18T23:30:24.509Z,14.40
2019-02-18T23:33:15.398Z,23.13
2019-02-18T23:36:05.853Z,14.83
2019-02-18T23:38:56.744Z,20.30
2019-02-18T23:41:47.128Z,18.70
2019-02-18T23:44:37.975Z,19.83
2019-02-18T23:47:28.326Z,14.80
2019-02-18T23:50:18.581Z,16.07
2019-02-18T23:53:08.652Z,15.03
2019-02-18T23:55:58.997Z,14.10
2019-02-18T23:58:49.302Z,17.23
